createdAt,value
2022-10-05T00:02:24.385Z,4.20
2022-10-05T00:04:57.117Z,4.55
2022-10-05T00:07:25.312Z,4.38
2022-10-05T00:09:58.038Z,3.92
2022-10-05T00:12:26.842Z,4.18
2022-10-05T00:14:59.819Z,2.90
2022-10-05T00:17:30.024Z,2.45
2022-10-05T00:19:57.229Z,2.70
2022-10-05T00:22:34.281Z,2.95
2022-10-05T00:25:10.672Z,4.60
2022-10-05T00:27:38.959Z,3.80
2022-10-05T00:30:18.215Z,7.90
2022-10-05T00:32:46.771Z,6.55
2022-10-05T00:35:15.676Z,3.38
2022-10-05T00:37:43.812Z,5.57
2022-10-05T00:40:24.562Z,7.07
2022-10-05T00:43:30.872Z,4.53
2022-10-05T00:46:08.811Z,5.38
2022-10-05T00:48:56.413Z,6.82
2022-10-05T00:51:25.526Z,4.03
2022-10-05T00:54:13.590Z,3.35
2022-10-05T00:57:15.675Z,4.25
2022-10-05T00:59:58.189Z,5.32
2022-10-05T01:02:45.482Z,4.45
2022-10-05T01:05:31.372Z,4.07
2022-10-05T01:08:17.679Z,3.55
2022-10-05T01:11:04.025Z,4.07
2022-10-05T01:14:04.455Z,5.07
2022-10-05T01:16:43.978Z,3.63
2022-10-05T01:19:40.298Z,8.07
2022-10-05T01:22:07.774Z,3.42
2022-10-05T01:24:37.294Z,2.88
2022-10-05T01:27:40.543Z,4.47
2022-10-05T01:30:20.493Z,2.95
2022-10-05T01:32:50.936Z,3.15
2022-10-05T01:35:43.703Z,2.97
2022-10-05T01:38:28.937Z,5.00
2022-10-05T01:41:12.023Z,5.97
2022-10-05T01:43:44.236Z,2.40
2022-10-05T01:46:27.883Z,4.45
2022-10-05T01:49:03.710Z,9.00
2022-10-05T01:51:57.589Z,6.38
2022-10-05T01:54:27.910Z,3.10
2022-10-05T01:57:17.482Z,6.07
2022-10-05T02:00:11.127Z,3.13
2022-10-05T02:03:16.186Z,6.03
2022-10-05T02:05:56.665Z,4.28
2022-10-05T02:08:54.939Z,5.13
2022-10-05T02:11:22.256Z,2.78
2022-10-05T02:14:12.384Z,5.68
2022-10-05T02:16:44.717Z,5.47
2022-10-05T02:19:21.061Z,2.33
2022-10-05T02:21:54.877Z,4.22
2022-10-05T02:24:28.603Z,5.53
2022-10-05T02:26:56.703Z,3.83
2022-10-05T02:29:29.601Z,5.70
2022-10-05T02:32:04.694Z,4.07
2022-10-05T02:34:43.093Z,6.45
2022-10-05T02:37:34.476Z,4.63
2022-10-05T02:40:20.176Z,4.03
2022-10-05T02:42:55.353Z,3.65
2022-10-05T02:45:37.821Z,3.22
2022-10-05T02:48:16.434Z,3.00
2022-10-05T02:51:23.021Z,5.25
2022-10-05T02:53:50.199Z,3.88
2022-10-05T02:56:36.787Z,6.50
2022-10-05T02:59:57.882Z,7.32
2022-10-05T03:02:56.396Z,7.05
2022-10-05T03:05:46.955Z,5.07
2022-10-05T03:08:22.505Z,7.78
2022-10-05T03:10:56.652Z,6.05
2022-10-05T03:13:27.606Z,3.22
2022-10-05T03:16:10.843Z,4.75
2022-10-05T03:21:25.315Z,7.20
2022-10-05T03:24:35.757Z,6.72
2022-10-05T03:27:04.358Z,4.43
2022-10-05T03:30:08.459Z,8.02
2022-10-05T03:32:52.468Z,5.05
2022-10-05T03:35:34.780Z,2.70
2022-10-05T03:38:34.899Z,5.60
2022-10-05T03:41:31.862Z,3.50
2022-10-05T03:44:11.201Z,5.25
2022-10-05T03:47:14.290Z,10.70
2022-10-05T03:50:05.083Z,5.03
2022-10-05T03:53:25.079Z,3.00
2022-10-05T03:55:59.708Z,6.53
2022-10-05T03:58:46.217Z,6.57
2022-10-05T04:01:18.821Z,7.22
2022-10-05T04:03:54.204Z,6.07
2022-10-05T04:06:32.928Z,6.07
2022-10-05T04:09:10.220Z,5.20
2022-10-05T04:11:54.571Z,5.65
2022-10-05T04:14:37.265Z,3.20
2022-10-05T04:17:32.551Z,4.60
2022-10-05T04:20:06.854Z,6.75
2022-10-05T04:23:00.319Z,2.72
2022-10-05T04:25:51.877Z,6.43
2022-10-05T04:30:55.066Z,5.43
2022-10-05T04:33:22.737Z,4.40
2022-10-05T04:36:08.356Z,7.75
2022-10-05T04:38:57.348Z,7.43
2022-10-05T04:41:30.462Z,3.10
2022-10-05T04:44:34.353Z,4.35
2022-10-05T04:47:26.842Z,2.08
2022-10-05T04:50:29.664Z,3.63
2022-10-05T04:53:14.725Z,5.00
2022-10-05T04:56:11.112Z,3.55
2022-10-05T04:59:05.317Z,5.40
2022-10-05T05:01:50.596Z,4.65
2022-10-05T05:04:55.304Z,8.05
2022-10-05T05:07:48.313Z,4.72
2022-10-05T05:10:54.554Z,3.58
2022-10-05T05:13:50.264Z,4.32
2022-10-05T05:16:44.366Z,5.35
2022-10-05T05:19:41.966Z,3.88
2022-10-05T05:22:25.803Z,4.30
2022-10-05T05:25:15.956Z,2.03
2022-10-05T05:28:22.343Z,9.30
2022-10-05T05:31:00.546Z,6.25
2022-10-05T05:33:49.250Z,3.63
2022-10-05T05:36:43.536Z,3.28
2022-10-05T05:39:45.157Z,6.40
2022-10-05T05:42:30.810Z,7.22
2022-10-05T05:45:04.725Z,5.68
2022-10-05T05:47:38.298Z,2.30
2022-10-05T05:50:10.516Z,6.47
2022-10-05T05:52:51.549Z,7.03
2022-10-05T05:55:21.413Z,9.10
2022-10-05T05:57:59.157Z,5.32
2022-10-05T06:00:37.723Z,4.63
2022-10-05T06:03:21.068Z,6.22
2022-10-05T06:05:58.413Z,4.90
2022-10-05T06:08:42.535Z,5.13
2022-10-05T06:11:27.573Z,4.57
2022-10-05T06:16:31.479Z,5.18
2022-10-05T06:19:11.280Z,7.72
2022-10-05T06:21:46.773Z,7.40
2022-10-05T06:24:23.390Z,5.70
2022-10-05T06:26:57.153Z,8.00
2022-10-05T06:29:31.503Z,7.35
2022-10-05T06:32:18.646Z,10.77
2022-10-05T06:35:05.646Z,5.50
2022-10-05T06:37:56.913Z,8.18
2022-10-05T06:40:53.349Z,4.25
2022-10-05T06:43:39.388Z,9.77
2022-10-05T06:46:38.706Z,3.95
2022-10-05T06:49:51.992Z,5.95
2022-10-05T06:53:11.590Z,4.10
2022-10-05T06:55:52.490Z,3.65
2022-10-05T06:58:44.776Z,3.67
2022-10-05T07:01:31.174Z,4.47
2022-10-05T07:04:04.333Z,5.18
2022-10-05T07:07:00.081Z,2.67
2022-10-05T07:09:37.324Z,3.13
2022-10-05T07:12:32.871Z,3.75
2022-10-05T07:15:18.282Z,2.67
2022-10-05T07:18:14.374Z,6.78
2022-10-05T07:21:11.105Z,4.60
2022-10-05T07:23:53.191Z,2.35
2022-10-05T07:26:35.152Z,1.63
2022-10-05T07:31:58.689Z,3.70
2022-10-05T07:34:49.995Z,5.63
2022-10-05T07:37:45.331Z,5.53
2022-10-05T07:40:21.280Z,5.70
2022-10-05T07:43:14.525Z,4.72
2022-10-05T07:45:47.001Z,5.13
2022-10-05T07:48:39.877Z,3.92
2022-10-05T07:51:18.516Z,5.22
2022-10-05T07:54:15.885Z,6.28
2022-10-05T07:56:45.946Z,2.08
2022-10-05T07:59:38.723Z,9.70
2022-10-05T08:02:44.583Z,7.32
2022-10-05T08:05:23.354Z,14.50
2022-10-05T08:07:57.453Z,3.08
2022-10-05T08:10:36.536Z,4.78
2022-10-05T08:13:12.132Z,6.38
2022-10-05T08:15:43.147Z,6.50
2022-10-05T08:18:16.567Z,3.83
2022-10-05T08:20:52.500Z,6.00
2022-10-05T08:23:41.072Z,5.18
2022-10-05T08:26:38.872Z,6.72
2022-10-05T08:29:29.951Z,5.03
2022-10-05T08:32:05.717Z,9.80
2022-10-05T08:34:59.379Z,2.65
2022-10-05T08:37:32.298Z,6.63
2022-10-05T08:40:36.688Z,3.97
2022-10-05T08:43:19.164Z,5.18
2022-10-05T08:46:24.010Z,8.77
2022-10-05T08:49:23.440Z,6.75
2022-10-05T08:52:25.760Z,7.65
2022-10-05T08:54:59.208Z,8.85
2022-10-05T08:57:39.262Z,7.95
2022-10-05T09:00:34.019Z,6.65
2022-10-05T09:03:16.582Z,7.38
2022-10-05T09:08:48.166Z,7.07
2022-10-05T09:11:39.516Z,13.45
2022-10-05T09:14:18.817Z,7.57
2022-10-05T09:17:13.716Z,7.55
2022-10-05T09:19:40.956Z,7.25
2022-10-05T09:22:15.865Z,7.47
2022-10-05T09:25:21.121Z,9.82
2022-10-05T09:28:31.422Z,3.72
2022-10-05T09:31:07.569Z,14.45
2022-10-05T09:33:45.786Z,8.07
2022-10-05T09:36:34.339Z,5.97
2022-10-05T09:39:28.059Z,4.22
2022-10-05T09:42:07.479Z,7.15
2022-10-05T09:44:57.597Z,9.77
2022-10-05T09:47:52.347Z,7.50
2022-10-05T09:50:41.434Z,8.80
2022-10-05T09:53:11.803Z,7.25
2022-10-05T09:55:42.059Z,5.90
2022-10-05T09:58:35.220Z,6.22
2022-10-05T10:01:34.306Z,5.80
2022-10-05T10:04:08.091Z,7.47
2022-10-05T10:07:03.778Z,13.05
2022-10-05T10:09:35.201Z,8.75
2022-10-05T10:12:10.281Z,5.97
2022-10-05T10:15:09.489Z,7.35
2022-10-05T10:17:55.663Z,8.82
2022-10-05T10:20:36.801Z,10.07
2022-10-05T10:23:13.228Z,8.48
2022-10-05T10:26:11.942Z,7.07
2022-10-05T10:29:32.136Z,8.23
2022-10-05T10:32:07.917Z,7.50
2022-10-05T10:34:56.344Z,5.97
2022-10-05T10:37:58.730Z,11.13
2022-10-05T10:40:37.232Z,7.20
2022-10-05T10:43:19.443Z,8.18
2022-10-05T10:46:00.204Z,8.63
2022-10-05T10:48:30.869Z,12.93
2022-10-05T10:51:07.425Z,4.88
2022-10-05T10:53:46.678Z,9.25
2022-10-05T10:56:41.650Z,7.65
2022-10-05T10:59:26.658Z,10.00
2022-10-05T11:02:20.736Z,5.85
2022-10-05T11:05:22.996Z,7.68
2022-10-05T11:08:30.088Z,8.75
2022-10-05T11:11:31.270Z,7.68
2022-10-05T11:14:21.309Z,9.05
2022-10-05T11:16:52.331Z,6.82
2022-10-05T11:20:18.528Z,8.10
2022-10-05T11:23:18.406Z,9.40
2022-10-05T11:25:48.548Z,7.53
2022-10-05T11:28:29.380Z,10.73
2022-10-05T11:30:59.987Z,7.57
2022-10-05T11:33:43.098Z,6.40
2022-10-05T11:36:40.827Z,8.60
2022-10-05T11:39:33.465Z,5.93
2022-10-05T11:42:33.349Z,8.70
2022-10-05T11:45:22.293Z,6.63
2022-10-05T11:48:30.632Z,5.03
2022-10-05T11:51:34.370Z,6.60
2022-10-05T11:54:46.593Z,8.02
2022-10-05T11:57:37.904Z,8.20
2022-10-05T12:00:17.008Z,5.93
2022-10-05T12:02:56.156Z,8.48
2022-10-05T12:05:36.615Z,2.80
2022-10-05T12:08:15.680Z,6.38
2022-10-05T12:11:03.860Z,7.18
2022-10-05T12:14:04.984Z,5.95
2022-10-05T12:16:43.684Z,9.50
2022-10-05T12:19:23.999Z,7.80
2022-10-05T12:22:04.200Z,3.50
2022-10-05T12:24:37.542Z,4.97
2022-10-05T12:27:11.427Z,5.57
2022-10-05T12:30:11.184Z,8.48
2022-10-05T12:32:44.560Z,4.35
2022-10-05T12:35:55.737Z,4.53
2022-10-05T12:38:38.296Z,6.35
2022-10-05T12:45:21.023Z,5.30
2022-10-05T12:48:10.543Z,5.22
2022-10-05T12:50:51.446Z,3.95
2022-10-05T12:53:19.846Z,6.47
2022-10-05T12:55:59.937Z,6.38
2022-10-05T12:58:27.305Z,7.60
2022-10-05T13:01:32.242Z,4.05
2022-10-05T13:04:18.063Z,6.00
2022-10-05T13:06:51.881Z,4.28
2022-10-05T13:09:54.489Z,4.72
2022-10-05T13:12:45.499Z,3.13
2022-10-05T13:16:05.033Z,7.65
2022-10-05T13:18:54.466Z,12.02
2022-10-05T13:21:27.823Z,7.57
2022-10-05T13:24:02.855Z,13.15
2022-10-05T13:26:40.778Z,9.65
2022-10-05T13:29:17.574Z,8.68
2022-10-05T13:31:46.649Z,7.30
2022-10-05T13:34:48.809Z,10.10
2022-10-05T13:37:28.278Z,6.47
2022-10-05T13:40:20.218Z,9.18
2022-10-05T13:42:58.080Z,12.90
2022-10-05T13:45:29.957Z,13.77
2022-10-05T13:48:39.706Z,11.70
2022-10-05T13:51:14.344Z,12.82
2022-10-05T13:53:50.167Z,15.93
2022-10-05T13:56:29.334Z,8.95
2022-10-05T13:59:15.164Z,6.70
2022-10-05T14:01:50.459Z,1.67
2022-10-05T14:04:48.358Z,2.83
2022-10-05T14:07:23.008Z,3.25
2022-10-05T14:09:50.376Z,1.15
2022-10-05T14:12:23.243Z,2.72
2022-10-05T14:14:52.951Z,3.83
2022-10-05T14:17:38.061Z,2.60
2022-10-05T14:20:26.965Z,2.05
2022-10-05T14:23:16.239Z,3.67
2022-10-05T14:25:54.118Z,1.90
2022-10-05T14:28:30.011Z,2.85
2022-10-05T14:31:01.912Z,1.33
2022-10-05T14:33:35.018Z,1.17
2022-10-05T14:36:02.676Z,2.30
2022-10-05T14:38:32.593Z,1.35
2022-10-05T14:41:17.632Z,2.33
2022-10-05T14:44:02.006Z,1.67
2022-10-05T14:46:34.065Z,2.20
2022-10-05T14:49:22.870Z,1.58
2022-10-05T14:51:51.874Z,3.20
2022-10-05T14:54:33.948Z,2.55
2022-10-05T14:57:52.922Z,1.42
2022-10-05T15:00:20.468Z,0.98
2022-10-05T15:03:17.605Z,2.00
2022-10-05T15:05:51.108Z,1.30
2022-10-05T15:08:37.021Z,1.42
2022-10-05T15:11:09.121Z,0.98
2022-10-05T15:13:44.006Z,2.05
2022-10-05T15:16:21.223Z,1.77
2022-10-05T15:19:16.155Z,1.88
2022-10-05T15:21:50.439Z,1.40
2022-10-05T15:24:25.910Z,1.80
2022-10-05T15:26:59.346Z,0.60
2022-10-05T15:30:06.380Z,2.13
2022-10-05T15:32:55.749Z,0.60
2022-10-05T15:35:37.201Z,0.75
2022-10-05T15:38:25.708Z,1.50
2022-10-05T15:41:08.245Z,1.88
2022-10-05T15:43:53.343Z,2.97
2022-10-05T15:47:17.956Z,2.72
2022-10-05T15:50:11.221Z,1.25
2022-10-05T15:52:46.595Z,1.73
2022-10-05T15:55:35.399Z,1.80
2022-10-05T15:58:53.172Z,1.70
2022-10-05T16:01:31.832Z,1.35
2022-10-05T16:04:13.055Z,3.13
2022-10-05T16:07:07.008Z,1.63
2022-10-05T16:10:06.261Z,2.72
2022-10-05T16:13:00.383Z,3.60
2022-10-05T16:15:48.835Z,3.88
2022-10-05T16:18:39.316Z,3.40
2022-10-05T16:21:17.905Z,1.33
2022-10-05T16:23:58.085Z,1.90
2022-10-05T16:26:34.161Z,3.90
2022-10-05T16:29:17.809Z,5.40
2022-10-05T16:31:57.440Z,4.80
2022-10-05T16:34:45.110Z,4.97
2022-10-05T16:37:15.373Z,5.15
2022-10-05T16:40:03.268Z,1.48
2022-10-05T16:42:37.388Z,8.55
2022-10-05T16:45:45.080Z,4.43
2022-10-05T16:48:30.756Z,3.75
2022-10-05T16:51:28.464Z,2.85
2022-10-05T16:54:21.125Z,2.15
2022-10-05T16:59:56.002Z,2.75
2022-10-05T17:02:41.273Z,4.72
2022-10-05T17:05:30.041Z,6.72
2022-10-05T17:08:18.499Z,4.03
2022-10-05T17:10:54.511Z,2.78
2022-10-05T17:13:41.184Z,2.22
2022-10-05T17:16:35.602Z,4.38
2022-10-05T17:19:36.501Z,4.13
2022-10-05T17:22:27.012Z,1.83
2022-10-05T17:24:54.087Z,2.00
2022-10-05T17:27:24.413Z,2.58
2022-10-05T17:30:15.411Z,3.33
2022-10-05T17:32:58.141Z,4.40
2022-10-05T17:36:03.217Z,3.70
2022-10-05T17:38:37.696Z,2.33
2022-10-05T17:41:22.892Z,2.47
2022-10-05T17:44:21.087Z,2.47
2022-10-05T17:46:52.615Z,8.05
2022-10-05T17:49:46.404Z,2.78
2022-10-05T17:52:45.676Z,3.50
2022-10-05T17:55:27.955Z,3.83
2022-10-05T17:57:58.794Z,7.60
2022-10-05T18:00:40.908Z,6.65
2022-10-05T18:03:33.716Z,6.82
2022-10-05T18:08:47.539Z,3.17
2022-10-05T18:11:40.263Z,6.90
2022-10-05T18:17:00.162Z,4.18
2022-10-05T18:19:32.494Z,4.88
2022-10-05T18:24:56.228Z,4.35
2022-10-05T18:27:43.631Z,7.28
2022-10-05T18:30:25.420Z,6.45
2022-10-05T18:33:29.953Z,3.65
2022-10-05T18:36:06.158Z,7.13
2022-10-05T18:38:58.447Z,4.32
2022-10-05T18:42:03.030Z,6.88
2022-10-05T18:44:48.947Z,10.27
2022-10-05T18:47:20.875Z,7.47
2022-10-05T18:49:51.934Z,8.38
2022-10-05T18:52:45.647Z,3.83
2022-10-05T18:55:44.382Z,6.10
2022-10-05T18:58:20.828Z,3.17
2022-10-05T19:01:31.687Z,4.85
2022-10-05T19:04:33.451Z,5.18
2022-10-05T19:07:04.838Z,8.73
2022-10-05T19:09:53.922Z,9.38
2022-10-05T19:12:35.996Z,6.80
2022-10-05T19:15:50.078Z,9.40
2022-10-05T19:18:36.053Z,5.38
2022-10-05T19:21:05.918Z,6.63
2022-10-05T19:23:51.139Z,10.82
2022-10-05T19:26:28.916Z,7.70
2022-10-05T19:29:22.714Z,10.52
2022-10-05T19:32:04.413Z,6.78
2022-10-05T19:34:56.517Z,6.27
2022-10-05T19:37:31.157Z,9.30
2022-10-05T19:40:33.675Z,8.65
2022-10-05T19:43:09.713Z,10.23
2022-10-05T19:45:43.480Z,6.60
2022-10-05T19:48:26.961Z,6.30
2022-10-05T19:51:00.363Z,10.23
2022-10-05T19:53:38.024Z,12.93
2022-10-05T19:56:20.359Z,9.15
2022-10-05T19:58:49.969Z,8.73
2022-10-05T20:01:34.027Z,5.63
2022-10-05T20:04:01.431Z,8.25
2022-10-05T20:06:30.229Z,11.32
2022-10-05T20:09:04.731Z,6.47
2022-10-05T20:11:49.474Z,12.20
2022-10-05T20:14:19.881Z,9.68
2022-10-05T20:17:05.775Z,9.00
2022-10-05T20:19:51.383Z,7.35
2022-10-05T20:22:34.757Z,8.07
2022-10-05T20:25:07.427Z,13.90
2022-10-05T20:27:37.372Z,8.52
2022-10-05T20:30:05.999Z,9.45
2022-10-05T20:32:33.113Z,13.45
2022-10-05T20:35:00.247Z,8.05
2022-10-05T20:37:27.407Z,12.63
2022-10-05T20:39:54.661Z,11.70
2022-10-05T20:42:23.046Z,8.73
2022-10-05T20:44:55.790Z,11.43
2022-10-05T20:47:25.392Z,9.73
2022-10-05T20:49:55.087Z,10.98
2022-10-05T20:52:23.320Z,10.75
2022-10-05T20:54:53.935Z,9.75
2022-10-05T20:57:21.489Z,16.95
2022-10-05T20:59:48.588Z,11.80
2022-10-05T21:02:15.773Z,7.18
2022-10-05T21:04:47.529Z,15.18
2022-10-05T21:07:17.294Z,11.68
2022-10-05T21:09:46.584Z,9.20
2022-10-05T21:12:16.142Z,11.02
2022-10-05T21:14:43.437Z,15.02
2022-10-05T21:17:14.317Z,14.98
2022-10-05T21:19:41.789Z,15.32
2022-10-05T21:22:09.990Z,9.43
2022-10-05T21:24:38.965Z,16.75
2022-10-05T21:27:07.187Z,10.02
2022-10-05T21:29:35.436Z,7.75
2022-10-05T21:32:02.908Z,7.60
2022-10-05T21:34:30.508Z,15.80
2022-10-05T21:36:57.586Z,10.38
2022-10-05T21:39:25.483Z,7.63
2022-10-05T21:41:52.619Z,11.15
2022-10-05T21:44:19.713Z,9.02
2022-10-05T21:46:47.784Z,17.00
2022-10-05T21:49:17.568Z,15.23
2022-10-05T21:51:48.044Z,12.88
2022-10-05T21:54:20.071Z,7.72
2022-10-05T21:56:50.945Z,10.55
2022-10-05T21:59:21.515Z,12.60
2022-10-05T22:01:48.738Z,15.25
2022-10-05T22:04:17.171Z,14.18
2022-10-05T22:06:44.291Z,5.25
2022-10-05T22:09:12.671Z,15.30
2022-10-05T22:11:39.839Z,14.75
2022-10-05T22:14:06.948Z,7.80
2022-10-05T22:16:38.235Z,11.88
2022-10-05T22:19:07.570Z,14.65
2022-10-05T22:21:41.755Z,9.52
2022-10-05T22:24:11.631Z,16.80
2022-10-05T22:26:41.821Z,8.00
2022-10-05T22:29:09.730Z,14.60
2022-10-05T22:31:37.449Z,11.88
2022-10-05T22:34:04.629Z,14.20
2022-10-05T22:36:34.702Z,10.10
2022-10-05T22:39:02.070Z,12.48
2022-10-05T22:41:29.299Z,21.98
2022-10-05T22:43:56.380Z,17.83
2022-10-05T22:46:23.666Z,9.38
2022-10-05T22:48:50.901Z,12.15
2022-10-05T22:51:17.989Z,12.85
2022-10-05T22:53:45.253Z,11.23
2022-10-05T22:56:14.152Z,10.60
2022-10-05T22:58:42.616Z,14.10
2022-10-05T23:01:12.336Z,13.13
2022-10-05T23:03:39.895Z,16.33
2022-10-05T23:06:10.201Z,12.77
2022-10-05T23:08:38.990Z,14.95
2022-10-05T23:11:08.747Z,7.93
2022-10-05T23:13:36.449Z,12.65
2022-10-05T23:16:14.890Z,16.08
2022-10-05T23:18:42.982Z,9.85
2022-10-05T23:21:11.010Z,15.13
2022-10-05T23:23:40.556Z,12.25
2022-10-05T23:26:09.354Z,18.90
2022-10-05T23:28:38.388Z,18.23
2022-10-05T23:31:07.923Z,9.38
2022-10-05T23:33:35.684Z,9.70
2022-10-05T23:36:09.225Z,12.23
2022-10-05T23:38:36.709Z,8.40
2022-10-05T23:41:05.375Z,10.65
2022-10-05T23:43:33.413Z,12.60
2022-10-05T23:46:01.287Z,10.10
2022-10-05T23:48:29.009Z,15.90
2022-10-05T23:50:56.567Z,17.42
2022-10-05T23:53:24.107Z,14.70
2022-10-05T23:55:53.135Z,16.42
2022-10-05T23:58:21.726Z,17.75
